createdAt,value
2019-05-18T00:01:34.190Z,58.96
2019-05-18T00:03:35.795Z,59.29
2019-05-18T00:05:37.412Z,59.16
2019-05-18T00:07:39.012Z,59.15
2019-05-18T00:09:40.647Z,59.53
2019-05-18T00:11:42.245Z,59.32
2019-05-18T00:13:43.857Z,59.50
2019-05-18T00:15:45.512Z,59.55
2019-05-18T00:17:47.145Z,59.33
2019-05-18T00:19:48.759Z,59.30
2019-05-18T00:21:50.367Z,59.07
2019-05-18T00:23:51.976Z,59.04
2019-05-18T00:25:53.578Z,58.98
2019-05-18T00:27:55.219Z,58.97
2019-05-18T00:29:56.819Z,58.84
2019-05-18T00:31:58.426Z,58.89
2019-05-18T00:34:00.032Z,59.12
2019-05-18T00:36:01.631Z,59.29
2019-05-18T00:38:03.228Z,59.55
2019-05-18T00:40:04.833Z,59.64
2019-05-18T00:42:06.446Z,59.76
2019-05-18T00:44:08.081Z,59.95
2019-05-18T00:46:09.678Z,59.74
2019-05-18T00:48:11.293Z,59.76
2019-05-18T00:50:12.931Z,59.51
2019-05-18T00:52:14.530Z,59.26
2019-05-18T00:54:16.136Z,59.29
2019-05-18T00:56:17.724Z,59.17
2019-05-18T00:58:19.331Z,59.38
2019-05-18T01:00:20.976Z,59.44
2019-05-18T01:02:22.581Z,59.72
2019-05-18T01:04:24.234Z,59.81
2019-05-18T01:06:25.834Z,59.98
2019-05-18T01:08:27.444Z,60.13
2019-05-18T01:10:29.088Z,60.31
2019-05-18T01:12:30.686Z,60.40
2019-05-18T01:14:32.526Z,60.30
2019-05-18T01:16:34.122Z,60.20
2019-05-18T01:18:35.715Z,60.18
2019-05-18T01:20:37.335Z,60.33
2019-05-18T01:22:38.971Z,60.31
2019-05-18T01:24:40.580Z,60.44
2019-05-18T01:26:42.175Z,60.26
2019-05-18T01:28:43.793Z,60.09
2019-05-18T01:30:45.393Z,60.12
2019-05-18T01:32:46.990Z,60.18
2019-05-18T01:34:48.584Z,60.44
2019-05-18T01:36:50.193Z,60.65
2019-05-18T01:38:51.803Z,60.83
2019-05-18T01:40:53.418Z,60.76
2019-05-18T01:42:55.005Z,60.82
2019-05-18T01:44:56.658Z,60.84
2019-05-18T01:46:58.880Z,61.21
2019-05-18T01:49:00.468Z,61.55
2019-05-18T01:51:02.065Z,62.03
2019-05-18T01:53:04.312Z,62.21
2019-05-18T01:55:05.932Z,61.91
2019-05-18T01:57:07.538Z,62.11
2019-05-18T01:59:09.175Z,62.23
2019-05-18T02:01:10.770Z,63.36
2019-05-18T02:03:12.370Z,61.78
2019-05-18T02:05:14.018Z,60.76
2019-05-18T02:07:15.613Z,60.52
2019-05-18T02:09:17.215Z,60.36
2019-05-18T02:11:18.830Z,60.21
2019-05-18T02:13:20.444Z,60.00
2019-05-18T02:15:22.087Z,60.15
2019-05-18T02:17:23.671Z,60.16
2019-05-18T02:19:25.279Z,59.98
2019-05-18T02:21:26.882Z,60.30
2019-05-18T02:23:28.483Z,60.07
2019-05-18T02:25:30.068Z,59.97
2019-05-18T02:27:31.713Z,60.01
2019-05-18T02:29:33.343Z,60.15
2019-05-18T02:31:34.930Z,59.88
2019-05-18T02:33:36.543Z,60.03
2019-05-18T02:35:38.128Z,60.03
2019-05-18T02:37:39.745Z,60.11
2019-05-18T02:39:41.390Z,60.13
2019-05-18T02:41:43.001Z,60.13
2019-05-18T02:43:44.602Z,60.12
2019-05-18T02:45:46.242Z,60.09
2019-05-18T02:47:47.861Z,60.05
2019-05-18T02:49:49.493Z,60.08
2019-05-18T02:51:51.089Z,60.19
2019-05-18T02:53:52.709Z,60.49
2019-05-18T02:55:54.312Z,60.38
2019-05-18T02:57:55.922Z,60.30
2019-05-18T02:59:57.550Z,60.25
2019-05-18T03:01:59.169Z,60.11
2019-05-18T03:04:00.757Z,60.13
2019-05-18T03:06:02.383Z,59.94
2019-05-18T03:08:03.992Z,59.96
2019-05-18T03:10:05.595Z,59.99
2019-05-18T03:12:07.242Z,59.75
2019-05-18T03:14:08.850Z,59.84
2019-05-18T03:16:10.454Z,59.89
2019-05-18T03:18:12.074Z,59.89
2019-05-18T03:20:13.723Z,59.85
2019-05-18T03:22:15.321Z,59.67
2019-05-18T03:24:17.080Z,59.68
2019-05-18T03:26:18.606Z,59.81
2019-05-18T03:28:20.207Z,59.93
2019-05-18T03:30:21.891Z,59.98
2019-05-18T03:32:23.466Z,59.57
2019-05-18T03:34:25.085Z,59.71
2019-05-18T03:36:26.691Z,59.92
2019-05-18T03:38:28.293Z,59.86
2019-05-18T03:40:29.921Z,59.96
2019-05-18T03:42:31.522Z,59.91
2019-05-18T03:44:33.154Z,59.89
2019-05-18T03:46:34.775Z,59.98
2019-05-18T03:48:36.375Z,59.97
2019-05-18T03:50:37.974Z,60.04
2019-05-18T03:52:39.561Z,59.96
2019-05-18T03:54:41.215Z,60.01
2019-05-18T03:56:42.835Z,59.90
2019-05-18T03:58:44.429Z,60.18
2019-05-18T04:00:46.022Z,60.14
2019-05-18T04:02:47.616Z,59.93
2019-05-18T04:04:49.267Z,60.03
2019-05-18T04:06:50.896Z,59.86
2019-05-18T04:08:52.493Z,60.04
2019-05-18T04:10:54.116Z,60.24
2019-05-18T04:12:55.713Z,60.23
2019-05-18T04:14:57.326Z,60.09
2019-05-18T04:16:58.973Z,60.11
2019-05-18T04:19:00.592Z,60.14
2019-05-18T04:21:02.181Z,60.23
2019-05-18T04:23:03.804Z,60.12
2019-05-18T04:25:05.421Z,60.17
2019-05-18T04:27:07.058Z,60.01
2019-05-18T04:29:08.653Z,60.54
2019-05-18T04:31:10.252Z,60.35
2019-05-18T04:33:11.850Z,60.23
2019-05-18T04:35:13.487Z,60.46
2019-05-18T04:37:15.083Z,60.96
2019-05-18T04:39:16.697Z,60.80
2019-05-18T04:41:18.298Z,60.69
2019-05-18T04:43:19.901Z,60.90
2019-05-18T04:45:21.502Z,60.89
2019-05-18T04:47:23.140Z,60.86
2019-05-18T04:49:24.760Z,60.99
2019-05-18T04:51:26.365Z,61.01
2019-05-18T04:53:27.976Z,61.16
2019-05-18T04:55:29.566Z,61.28
2019-05-18T04:57:31.161Z,61.29
2019-05-18T04:59:32.759Z,61.46
2019-05-18T05:01:34.355Z,61.56
2019-05-18T05:03:35.996Z,61.82
2019-05-18T05:05:37.588Z,61.81
2019-05-18T05:07:39.195Z,61.40
2019-05-18T05:09:40.830Z,61.44
2019-05-18T05:11:42.436Z,61.20
2019-05-18T05:13:44.056Z,61.16
2019-05-18T05:15:45.677Z,61.13
2019-05-18T05:17:47.295Z,61.15
2019-05-18T05:19:48.926Z,60.89
2019-05-18T05:21:50.538Z,60.74
2019-05-18T05:23:52.170Z,60.61
2019-05-18T05:25:53.775Z,60.56
2019-05-18T05:27:55.373Z,60.66
2019-05-18T05:29:57.011Z,60.66
2019-05-18T05:31:58.616Z,60.84
2019-05-18T05:34:00.256Z,60.71
2019-05-18T05:36:01.881Z,60.86
2019-05-18T05:38:03.505Z,60.79
2019-05-18T05:40:05.119Z,61.14
2019-05-18T05:42:06.781Z,61.24
2019-05-18T05:44:08.410Z,61.40
2019-05-18T05:46:10.005Z,61.61
2019-05-18T05:48:11.598Z,61.76
2019-05-18T05:50:13.278Z,61.73
2019-05-18T05:52:14.896Z,61.62
2019-05-18T05:54:16.526Z,61.87
2019-05-18T05:56:18.145Z,61.52
2019-05-18T05:58:19.742Z,61.85
2019-05-18T06:00:21.335Z,62.04
2019-05-18T06:02:22.933Z,62.08
2019-05-18T06:04:24.613Z,61.92
2019-05-18T06:06:26.214Z,62.13
2019-05-18T06:08:27.821Z,62.32
2019-05-18T06:10:29.438Z,62.41
2019-05-18T06:12:31.028Z,62.29
2019-05-18T06:14:32.648Z,62.29
2019-05-18T06:16:34.269Z,62.52
2019-05-18T06:18:35.893Z,62.53
2019-05-18T06:20:50.442Z,62.40
2019-05-18T06:22:39.144Z,63.36
2019-05-18T06:24:40.756Z,62.79
2019-05-18T06:26:42.363Z,62.17
2019-05-18T06:28:43.962Z,61.67
2019-05-18T06:30:45.581Z,61.09
2019-05-18T06:32:47.192Z,60.79
2019-05-18T06:34:48.832Z,60.80
2019-05-18T06:36:50.428Z,60.78
2019-05-18T06:38:52.045Z,60.00
2019-05-18T06:40:53.647Z,59.53
2019-05-18T06:42:55.280Z,59.13
2019-05-18T06:44:56.910Z,59.01
2019-05-18T06:46:58.552Z,58.79
2019-05-18T06:49:00.137Z,58.66
2019-05-18T06:51:07.347Z,58.48
2019-05-18T06:53:03.490Z,58.46
2019-05-18T06:55:05.089Z,58.46
2019-05-18T06:57:06.727Z,58.24
2019-05-18T06:59:08.340Z,58.17
2019-05-18T07:01:09.938Z,58.08
2019-05-18T07:03:11.544Z,58.13
2019-05-18T07:05:13.132Z,58.38
2019-05-18T07:07:14.766Z,58.62
2019-05-18T07:09:16.362Z,58.62
2019-05-18T07:11:18.676Z,58.56
2019-05-18T07:13:20.268Z,58.62
2019-05-18T07:15:21.882Z,58.71
2019-05-18T07:17:23.509Z,58.57
2019-05-18T07:19:25.120Z,58.04
2019-05-18T07:21:26.718Z,57.10
2019-05-18T07:23:28.324Z,56.96
2019-05-18T07:25:29.932Z,57.20
2019-05-18T07:27:31.541Z,57.37
2019-05-18T07:29:33.135Z,57.55
2019-05-18T07:31:34.730Z,57.69
2019-05-18T07:33:36.325Z,57.78
2019-05-18T07:35:37.964Z,57.79
2019-05-18T07:37:39.570Z,57.63
2019-05-18T07:39:41.212Z,57.53
2019-05-18T07:41:46.792Z,57.50
2019-05-18T07:43:44.527Z,57.46
2019-05-18T07:45:46.122Z,57.51
2019-05-18T07:47:47.728Z,57.62
2019-05-18T07:49:49.410Z,57.59
2019-05-18T07:51:51.028Z,57.67
2019-05-18T07:53:52.673Z,57.58
2019-05-18T07:55:54.326Z,57.53
2019-05-18T07:57:55.910Z,57.47
2019-05-18T07:59:57.510Z,57.40
2019-05-18T08:01:59.120Z,57.31
2019-05-18T08:04:00.705Z,57.23
2019-05-18T08:06:02.344Z,57.20
2019-05-18T08:08:03.941Z,57.09
2019-05-18T08:10:05.541Z,56.95
2019-05-18T08:12:07.133Z,56.97
2019-05-18T08:14:08.769Z,56.89
2019-05-18T08:16:10.380Z,56.84
2019-05-18T08:18:12.032Z,56.84
2019-05-18T08:20:13.653Z,56.80
2019-05-18T08:22:15.250Z,56.25
2019-05-18T08:24:16.900Z,54.63
2019-05-18T08:26:18.485Z,54.82
2019-05-18T08:28:20.078Z,54.25
2019-05-18T08:30:21.738Z,54.57
2019-05-18T08:32:23.340Z,54.46
2019-05-18T08:34:24.934Z,53.81
2019-05-18T08:36:26.577Z,53.57
2019-05-18T08:38:28.178Z,53.02
2019-05-18T08:40:29.809Z,54.05
2019-05-18T08:42:31.427Z,54.15
2019-05-18T08:44:33.050Z,53.91
2019-05-18T08:46:34.657Z,54.06
2019-05-18T08:48:36.268Z,54.12
2019-05-18T08:50:37.852Z,54.16
2019-05-18T08:52:39.455Z,53.96
2019-05-18T08:54:41.072Z,53.94
2019-05-18T08:56:42.707Z,53.34
2019-05-18T08:58:44.325Z,53.26
2019-05-18T09:00:45.944Z,52.88
2019-05-18T09:02:47.542Z,52.32
2019-05-18T09:04:49.135Z,52.03
2019-05-18T09:06:50.762Z,53.47
2019-05-18T09:08:52.376Z,55.03
2019-05-18T09:10:54.020Z,54.45
2019-05-18T09:12:55.634Z,55.08
2019-05-18T09:14:57.237Z,51.92
2019-05-18T09:16:58.874Z,52.88
2019-05-18T09:19:00.460Z,52.86
2019-05-18T09:21:02.160Z,52.70
2019-05-18T09:23:03.776Z,52.98
2019-05-18T09:25:05.392Z,53.88
2019-05-18T09:27:07.039Z,53.14
2019-05-18T09:29:08.667Z,52.83
2019-05-18T09:31:10.279Z,52.88
2019-05-18T09:33:11.924Z,52.94
2019-05-18T09:35:13.531Z,52.92
2019-05-18T09:37:15.152Z,53.00
2019-05-18T09:39:16.798Z,53.03
2019-05-18T09:41:18.394Z,53.18
2019-05-18T09:43:20.035Z,53.25
2019-05-18T09:45:21.644Z,53.39
2019-05-18T09:47:23.284Z,53.50
2019-05-18T09:49:24.920Z,53.66
2019-05-18T09:51:26.531Z,53.77
2019-05-18T09:53:30.084Z,53.85
2019-05-18T09:55:29.785Z,53.91
2019-05-18T09:57:31.390Z,53.99
2019-05-18T09:59:33.006Z,54.07
2019-05-18T10:01:34.639Z,54.13
2019-05-18T10:03:36.260Z,54.26
2019-05-18T10:05:37.898Z,54.30
2019-05-18T10:07:39.503Z,54.36
2019-05-18T10:09:41.133Z,54.41
2019-05-18T10:11:42.781Z,54.43
2019-05-18T10:13:44.391Z,54.45
2019-05-18T10:15:46.008Z,54.40
2019-05-18T10:17:47.602Z,54.38
2019-05-18T10:19:49.243Z,54.36
2019-05-18T10:21:50.870Z,54.43
2019-05-18T10:23:52.466Z,54.40
2019-05-18T10:25:54.101Z,54.44
2019-05-18T10:27:55.705Z,54.48
2019-05-18T10:29:57.337Z,54.57
2019-05-18T10:31:58.955Z,54.56
2019-05-18T10:34:00.539Z,54.53
2019-05-18T10:36:02.158Z,54.50
2019-05-18T10:38:03.740Z,54.51
2019-05-18T10:40:05.389Z,54.42
2019-05-18T10:42:06.985Z,54.33
2019-05-18T10:44:08.568Z,54.27
2019-05-18T10:46:10.199Z,54.31
2019-05-18T10:48:11.807Z,54.28
2019-05-18T10:50:13.494Z,54.25
2019-05-18T10:52:15.078Z,54.34
2019-05-18T10:54:16.684Z,54.39
2019-05-18T10:56:18.313Z,54.43
2019-05-18T10:58:19.910Z,54.44
2019-05-18T11:00:21.507Z,54.47
2019-05-18T11:02:23.115Z,54.52
2019-05-18T11:04:24.734Z,54.58
2019-05-18T11:06:26.347Z,54.62
2019-05-18T11:08:27.982Z,54.70
2019-05-18T11:10:29.577Z,54.74
2019-05-18T11:12:31.194Z,54.74
2019-05-18T11:14:32.789Z,54.85
2019-05-18T11:16:34.426Z,54.81
2019-05-18T11:18:36.035Z,54.69
2019-05-18T11:20:37.652Z,54.65
2019-05-18T11:22:39.259Z,54.60
2019-05-18T11:24:40.857Z,54.55
2019-05-18T11:26:42.462Z,54.51
2019-05-18T11:28:44.099Z,54.43
2019-05-18T11:30:45.709Z,54.33
2019-05-18T11:32:47.302Z,54.36
2019-05-18T11:34:48.895Z,54.40
2019-05-18T11:36:50.610Z,54.46
2019-05-18T11:38:52.245Z,54.50
2019-05-18T11:40:53.841Z,54.55
2019-05-18T11:42:55.452Z,54.62
2019-05-18T11:44:57.054Z,54.70
2019-05-18T11:46:58.646Z,54.69
2019-05-18T11:49:00.318Z,54.71
2019-05-18T11:51:01.914Z,54.74
2019-05-18T11:53:03.540Z,54.82
2019-05-18T11:55:05.137Z,54.87
2019-05-18T11:57:06.765Z,54.90
2019-05-18T11:59:08.398Z,54.93
2019-05-18T12:01:10.011Z,54.96
2019-05-18T12:03:11.613Z,54.99
2019-05-18T12:05:13.215Z,55.02
2019-05-18T12:07:14.819Z,55.06
2019-05-18T12:09:16.473Z,55.11
2019-05-18T12:11:18.092Z,55.18
2019-05-18T12:13:22.334Z,55.18
2019-05-18T12:15:21.363Z,55.14
2019-05-18T12:17:22.953Z,55.18
2019-05-18T12:19:24.554Z,55.19
2019-05-18T12:21:26.197Z,55.23
2019-05-18T12:23:27.798Z,55.23
2019-05-18T12:25:29.394Z,55.23
2019-05-18T12:27:31.002Z,55.25
2019-05-18T12:29:33.265Z,55.22
2019-05-18T12:31:34.880Z,55.25
2019-05-18T12:33:36.500Z,55.28
2019-05-18T12:35:38.098Z,55.28
2019-05-18T12:37:39.688Z,55.30
2019-05-18T12:39:41.282Z,55.34
2019-05-18T12:41:42.874Z,55.35
2019-05-18T12:43:44.484Z,55.34
2019-05-18T12:45:46.115Z,55.40
2019-05-18T12:47:47.715Z,55.39
2019-05-18T12:49:49.350Z,55.40
2019-05-18T12:51:50.980Z,55.41
2019-05-18T12:53:52.578Z,55.43
2019-05-18T12:55:54.212Z,55.45
2019-05-18T12:57:55.842Z,55.46
2019-05-18T12:59:57.434Z,55.48
2019-05-18T13:01:59.194Z,55.52
2019-05-18T13:04:00.795Z,55.55
2019-05-18T13:06:02.412Z,55.56
2019-05-18T13:08:04.052Z,55.55
2019-05-18T13:10:05.749Z,55.57
2019-05-18T13:12:07.342Z,55.58
2019-05-18T13:14:08.941Z,55.58
2019-05-18T13:16:10.583Z,55.60
2019-05-18T13:18:12.259Z,55.65
2019-05-18T13:20:13.862Z,55.70
2019-05-18T13:22:15.453Z,55.67
2019-05-18T13:24:17.059Z,55.71
2019-05-18T13:26:18.658Z,55.73
2019-05-18T13:28:20.285Z,55.75
2019-05-18T13:30:21.879Z,55.74
2019-05-18T13:32:23.522Z,55.75
2019-05-18T13:34:25.143Z,55.85
2019-05-18T13:36:26.744Z,55.94
2019-05-18T13:38:28.356Z,56.13
2019-05-18T13:40:29.954Z,56.02
2019-05-18T13:42:31.555Z,55.95
2019-05-18T13:44:33.202Z,55.94
2019-05-18T13:46:34.816Z,55.91
2019-05-18T13:48:36.424Z,55.90
2019-05-18T13:50:38.057Z,55.91
2019-05-18T13:52:39.667Z,55.98
2019-05-18T13:54:41.325Z,56.10
2019-05-18T13:56:42.936Z,56.04
2019-05-18T13:58:44.538Z,56.05
2019-05-18T14:00:46.166Z,56.06
2019-05-18T14:02:47.904Z,56.16
2019-05-18T14:04:49.498Z,56.24
2019-05-18T14:06:51.108Z,56.33
2019-05-18T14:08:52.766Z,56.43
2019-05-18T14:10:54.362Z,56.50
2019-05-18T14:12:56.054Z,56.54
2019-05-18T14:14:57.693Z,56.51
2019-05-18T14:16:59.308Z,56.60
2019-05-18T14:19:00.965Z,56.62
2019-05-18T14:21:02.620Z,56.61
2019-05-18T14:23:04.221Z,56.62
2019-05-18T14:25:18.341Z,56.60
2019-05-18T14:27:07.500Z,56.60
2019-05-18T14:29:09.094Z,56.62
2019-05-18T14:31:10.730Z,56.64
2019-05-18T14:33:12.492Z,56.65
2019-05-18T14:35:14.128Z,56.68
2019-05-18T14:37:15.740Z,56.69
2019-05-18T14:39:17.356Z,56.76
2019-05-18T14:41:18.954Z,56.87
2019-05-18T14:43:20.573Z,56.88
2019-05-18T14:45:22.194Z,56.90
2019-05-18T14:47:27.169Z,56.94
2019-05-18T14:49:25.455Z,56.92
2019-05-18T14:51:27.055Z,56.96
2019-05-18T14:53:28.673Z,56.96
2019-05-18T14:55:33.783Z,56.97
2019-05-18T14:57:31.927Z,56.97
2019-05-18T14:59:33.514Z,57.00
2019-05-18T15:01:35.129Z,57.00
2019-05-18T15:03:36.791Z,57.03
2019-05-18T15:05:38.891Z,57.02
2019-05-18T15:07:40.112Z,57.03
2019-05-18T15:09:41.700Z,57.05
2019-05-18T15:11:43.340Z,57.07
2019-05-18T15:13:44.945Z,57.09
2019-05-18T15:15:46.545Z,57.14
2019-05-18T15:17:48.184Z,57.16
2019-05-18T15:19:49.778Z,57.18
2019-05-18T15:21:51.378Z,57.25
2019-05-18T15:23:52.986Z,57.23
2019-05-18T15:25:54.582Z,57.32
2019-05-18T15:27:56.197Z,57.29
2019-05-18T15:29:57.844Z,57.30
2019-05-18T15:31:59.457Z,57.32
2019-05-18T15:34:01.119Z,57.33
2019-05-18T15:36:02.774Z,57.36
2019-05-18T15:38:05.039Z,57.38
2019-05-18T15:40:06.667Z,57.42
2019-05-18T15:42:08.252Z,57.36
2019-05-18T15:44:09.889Z,57.43
2019-05-18T15:46:11.482Z,57.44
2019-05-18T15:48:13.118Z,57.39
2019-05-18T15:50:14.751Z,57.40
2019-05-18T15:52:16.344Z,57.46
2019-05-18T15:54:18.000Z,57.46
2019-05-18T15:56:19.606Z,57.45
2019-05-18T15:58:21.197Z,57.43
2019-05-18T16:00:22.835Z,57.48
2019-05-18T16:02:24.424Z,57.54
2019-05-18T16:04:26.071Z,57.52
2019-05-18T16:06:27.660Z,57.57
2019-05-18T16:08:29.262Z,57.56
2019-05-18T16:10:30.920Z,57.54
2019-05-18T16:12:32.518Z,57.52
2019-05-18T16:14:34.115Z,57.57
2019-05-18T16:16:35.727Z,57.60
2019-05-18T16:18:37.330Z,57.61
2019-05-18T16:20:38.961Z,57.60
2019-05-18T16:22:44.269Z,57.64
2019-05-18T16:24:42.710Z,57.66
2019-05-18T16:26:44.315Z,57.64
2019-05-18T16:28:45.914Z,57.63
2019-05-18T16:30:47.519Z,57.63
2019-05-18T16:32:49.165Z,57.61
2019-05-18T16:34:50.775Z,57.61
2019-05-18T16:36:52.402Z,57.59
2019-05-18T16:38:53.995Z,57.57
2019-05-18T16:40:55.603Z,57.58
2019-05-18T16:42:57.336Z,57.60
2019-05-18T16:44:58.952Z,57.62
2019-05-18T16:47:00.592Z,57.66
2019-05-18T16:49:02.198Z,57.66
2019-05-18T16:51:03.786Z,57.61
2019-05-18T16:53:05.439Z,57.62
2019-05-18T16:55:07.047Z,57.66
2019-05-18T16:57:08.636Z,57.65
2019-05-18T16:59:10.244Z,57.62
2019-05-18T17:01:11.855Z,57.60
2019-05-18T17:03:13.484Z,57.57
2019-05-18T17:05:15.101Z,57.59
2019-05-18T17:07:16.712Z,57.60
2019-05-18T17:09:18.311Z,57.63
2019-05-18T17:11:19.892Z,57.60
2019-05-18T17:13:21.509Z,57.64
2019-05-18T17:15:23.106Z,57.62
2019-05-18T17:17:24.731Z,57.67
2019-05-18T17:19:26.350Z,57.65
2019-05-18T17:21:27.945Z,57.62
2019-05-18T17:23:29.557Z,57.62
2019-05-18T17:25:31.160Z,57.63
2019-05-18T17:27:32.785Z,57.62
2019-05-18T17:29:34.396Z,57.66
2019-05-18T17:31:35.991Z,57.64
2019-05-18T17:33:37.652Z,57.64
2019-05-18T17:35:39.281Z,57.65
2019-05-18T17:37:40.892Z,57.65
2019-05-18T17:39:42.487Z,57.64
2019-05-18T17:41:44.084Z,57.64
2019-05-18T17:43:45.698Z,57.65
2019-05-18T17:45:47.293Z,57.68
2019-05-18T17:47:48.893Z,57.69
2019-05-18T17:49:50.499Z,57.68
2019-05-18T17:51:52.096Z,57.68
2019-05-18T17:53:53.680Z,57.71
2019-05-18T17:55:55.292Z,57.70
2019-05-18T17:57:56.893Z,57.71
2019-05-18T17:59:58.495Z,57.72
2019-05-18T18:02:00.108Z,57.72
2019-05-18T18:04:01.714Z,57.79
2019-05-18T18:06:03.360Z,57.81
2019-05-18T18:08:04.981Z,57.59
2019-05-18T18:10:06.598Z,56.92
2019-05-18T18:12:08.207Z,56.19
2019-05-18T18:14:09.817Z,56.34
2019-05-18T18:16:11.464Z,56.37
2019-05-18T18:18:13.080Z,56.07
2019-05-18T18:20:14.678Z,56.32
2019-05-18T18:22:16.310Z,56.24
2019-05-18T18:24:17.965Z,56.22
2019-05-18T18:26:19.593Z,55.92
2019-05-18T18:28:21.199Z,56.17
2019-05-18T18:30:22.845Z,55.65
2019-05-18T18:32:24.505Z,56.07
2019-05-18T18:34:26.146Z,56.36
2019-05-18T18:36:27.741Z,56.30
2019-05-18T18:38:29.344Z,56.58
2019-05-18T18:40:30.951Z,56.57
2019-05-18T18:42:32.599Z,55.58
2019-05-18T18:44:34.215Z,55.15
2019-05-18T18:46:35.829Z,56.55
2019-05-18T18:48:37.557Z,56.39
2019-05-18T18:50:39.148Z,56.33
2019-05-18T18:52:41.556Z,56.43
2019-05-18T18:54:43.158Z,55.99
2019-05-18T18:56:44.746Z,56.01
2019-05-18T18:58:46.347Z,56.13
2019-05-18T19:00:48.011Z,55.82
2019-05-18T19:02:49.646Z,55.98
2019-05-18T19:04:51.247Z,56.11
2019-05-18T19:06:53.286Z,55.79
2019-05-18T19:08:54.889Z,55.66
2019-05-18T19:10:56.480Z,55.80
2019-05-18T19:12:58.554Z,56.00
2019-05-18T19:15:00.154Z,55.75
2019-05-18T19:17:01.746Z,55.69
2019-05-18T19:19:03.474Z,55.87
2019-05-18T19:21:05.042Z,55.83
2019-05-18T19:23:07.139Z,55.26
2019-05-18T19:25:08.752Z,55.77
2019-05-18T19:27:10.479Z,55.86
2019-05-18T19:29:12.094Z,55.83
2019-05-18T19:31:13.735Z,55.71
2019-05-18T19:33:16.145Z,55.65
2019-05-18T19:35:17.900Z,55.47
2019-05-18T19:37:19.497Z,55.67
2019-05-18T19:39:21.148Z,55.23
2019-05-18T19:41:24.125Z,55.68
2019-05-18T19:43:26.876Z,55.86
2019-05-18T19:45:28.520Z,56.23
2019-05-18T19:47:30.167Z,55.80
2019-05-18T19:49:31.872Z,53.89
2019-05-18T19:51:33.476Z,53.32
2019-05-18T19:53:35.063Z,53.09
2019-05-18T19:55:36.717Z,54.11
2019-05-18T19:57:38.311Z,54.32
2019-05-18T19:59:39.913Z,53.97
2019-05-18T20:01:41.512Z,54.38
2019-05-18T20:03:43.108Z,54.14
2019-05-18T20:05:44.707Z,54.36
2019-05-18T20:07:46.338Z,54.30
2019-05-18T20:09:47.943Z,54.20
2019-05-18T20:11:49.542Z,54.10
2019-05-18T20:13:51.138Z,54.39
2019-05-18T20:15:52.770Z,54.38
2019-05-18T20:17:55.002Z,54.16
2019-05-18T20:19:56.624Z,54.16
2019-05-18T20:21:58.297Z,54.19
2019-05-18T20:23:59.884Z,54.32
2019-05-18T20:26:01.480Z,54.46
2019-05-18T20:28:03.099Z,54.35
2019-05-18T20:30:04.704Z,54.56
2019-05-18T20:32:06.717Z,54.73
2019-05-18T20:34:08.319Z,54.66
2019-05-18T20:36:09.910Z,54.63
2019-05-18T20:38:11.561Z,55.01
2019-05-18T20:40:13.172Z,54.89
2019-05-18T20:42:14.882Z,54.91
2019-05-18T20:44:16.497Z,54.90
2019-05-18T20:46:18.101Z,55.21
2019-05-18T20:48:19.697Z,55.39
2019-05-18T20:50:21.289Z,55.42
2019-05-18T20:52:22.886Z,54.98
2019-05-18T20:54:24.481Z,54.75
2019-05-18T20:56:26.083Z,54.49
2019-05-18T20:58:39.441Z,54.60
2019-05-18T21:00:29.335Z,55.21
2019-05-18T21:02:30.945Z,55.03
2019-05-18T21:04:32.586Z,55.23
2019-05-18T21:06:34.181Z,55.16
2019-05-18T21:08:35.778Z,55.43
2019-05-18T21:10:37.374Z,55.48
2019-05-18T21:12:38.982Z,55.57
2019-05-18T21:14:40.593Z,55.55
2019-05-18T21:16:42.188Z,55.78
2019-05-18T21:18:43.797Z,55.58
2019-05-18T21:20:45.406Z,55.85
2019-05-18T21:22:47.006Z,55.88
2019-05-18T21:24:48.625Z,55.79
2019-05-18T21:26:50.266Z,56.10
2019-05-18T21:28:56.529Z,55.93
2019-05-18T21:30:53.542Z,55.87
2019-05-18T21:32:55.160Z,56.11
2019-05-18T21:34:56.748Z,55.93
2019-05-18T21:36:58.363Z,55.78
2019-05-18T21:38:59.984Z,56.07
2019-05-18T21:41:01.583Z,55.82
2019-05-18T21:43:03.213Z,55.88
2019-05-18T21:45:04.856Z,56.17
2019-05-18T21:47:06.462Z,53.02
2019-05-18T21:49:08.107Z,54.10
2019-05-18T21:51:09.716Z,55.26
2019-05-18T21:53:11.304Z,55.71
2019-05-18T21:55:12.944Z,55.93
2019-05-18T21:57:14.538Z,56.14
2019-05-18T21:59:16.147Z,56.34
2019-05-18T22:01:17.812Z,56.50
2019-05-18T22:03:19.421Z,56.80
2019-05-18T22:05:21.008Z,56.87
2019-05-18T22:07:22.632Z,56.97
2019-05-18T22:09:24.254Z,57.39
2019-05-18T22:11:25.873Z,57.47
2019-05-18T22:13:27.466Z,57.25
2019-05-18T22:15:29.059Z,57.39
2019-05-18T22:17:30.690Z,57.49
2019-05-18T22:19:32.286Z,57.71
2019-05-18T22:21:33.877Z,57.83
2019-05-18T22:23:35.492Z,58.14
2019-05-18T22:25:37.092Z,58.50
2019-05-18T22:27:38.746Z,58.35
2019-05-18T22:29:40.342Z,58.59
2019-05-18T22:31:41.984Z,58.80
2019-05-18T22:33:43.583Z,58.93
2019-05-18T22:35:45.188Z,59.19
2019-05-18T22:37:46.823Z,59.17
2019-05-18T22:39:48.436Z,59.32
2019-05-18T22:41:50.065Z,59.76
2019-05-18T22:43:51.671Z,59.86
2019-05-18T22:45:53.266Z,60.61
2019-05-18T22:47:54.903Z,60.88
2019-05-18T22:49:56.488Z,60.92
2019-05-18T22:51:58.109Z,61.06
2019-05-18T22:53:59.715Z,61.11
2019-05-18T22:56:01.315Z,61.23
2019-05-18T22:58:02.943Z,61.33
2019-05-18T23:00:04.555Z,61.46
2019-05-18T23:02:06.187Z,61.49
2019-05-18T23:04:07.790Z,61.63
2019-05-18T23:06:09.383Z,61.73
2019-05-18T23:08:10.987Z,62.12
2019-05-18T23:10:12.581Z,61.98
2019-05-18T23:12:14.232Z,62.03
2019-05-18T23:14:15.832Z,62.05
2019-05-18T23:16:17.457Z,62.02
2019-05-18T23:18:19.131Z,62.17
2019-05-18T23:20:20.711Z,62.12
2019-05-18T23:22:22.309Z,62.29
2019-05-18T23:24:23.988Z,62.36
2019-05-18T23:26:25.595Z,62.41
2019-05-18T23:28:27.204Z,62.53
2019-05-18T23:30:28.804Z,62.56
2019-05-18T23:32:30.484Z,62.53
2019-05-18T23:34:32.131Z,62.63
2019-05-18T23:36:33.716Z,62.58
2019-05-18T23:38:35.325Z,62.73
2019-05-18T23:40:36.935Z,62.61
2019-05-18T23:42:39.153Z,62.67
2019-05-18T23:44:40.792Z,62.78
2019-05-18T23:46:42.394Z,62.81
2019-05-18T23:48:43.979Z,62.93
2019-05-18T23:50:45.596Z,62.87
2019-05-18T23:52:47.195Z,62.91
2019-05-18T23:54:48.837Z,62.80
2019-05-18T23:56:50.434Z,62.83
2019-05-18T23:58:52.029Z,62.79
